CheckWX is a tool to help pilots better visualize weather data.  It is not intended as a substitute for an official pre-flight weather briefing.

16:29:28 UTC

EPPW TAF
Powidz Military Air Base Airport
Poland
TAF EPPW 141400Z 1415/1424 20012KT 9999 SCT014 BKN027 TEMPO 1415/1421 5000 RA SCT007 BKN014 BECMG 1416/1418 26015KT PROB30 TEMPO 1416/1420 23016G28KT 3000 RADZ BKN006

Dec-14@
15:00 UTC

Dec-14 @ 15:00 UTC

Dec-14@
16:00 UTC

Dec-14 @ 16:00 UTC

TAF EPPW 141400Z 1415/1424 20012KT 9999 SCT014 BKN027

Expired

Wind
  • 200° at 12 KTS
Cloud Levels
  • Scattered at 1,400' AGL
  • Broken at 2,700' AGL

Dec-14@
15:00 UTC

Dec-14 @ 15:00 UTC

Dec-14@
21:00 UTC

Dec-14 @ 21:00 UTC

TEMPO 1415/1421 5000 RA SCT007 BKN014

Temporary

Temporary Changes expected for less than half the time period

Conditions
Rain
Cloud Levels
  • Scattered at 700' AGL
  • Broken at 1,400' AGL

Dec-14@
16:00 UTC

Dec-14 @ 16:00 UTC

Dec-14@
20:00 UTC

Dec-14 @ 20:00 UTC

PROB30 TEMPO 1416/1420 23016G28KT 3000 RADZ BKN006

Temporary - 30% Likelihood

Temporary - 30% Likelihood during this time.

Wind
  • 230° at 16 KTS
  • {Gusting to 28 KTS
Conditions
Rain, Drizzle
Cloud Levels
  • Broken at 600' AGL

Dec-14@
16:00 UTC

Dec-14 @ 16:00 UTC

Dec-15@
00:00 UTC

Dec-15 @ 00:00 UTC

BECMG 1416/1418 26015KT

Becoming

Becoming Conditions expected by Sat, Dec 14, 2019 @ 18:00 UTC

Wind
  • 260° at 15 KTS
Cloud Levels
  • Scattered at 1,400' AGL
  • Broken at 2,700' AGL